Time,TemperatureF,DewpointF,PressureIn,WindDirection,WindDirectionDegrees,WindSpeedMPH,WindSpeedGustMPH,Humidity,HourlyPrecipIn,Conditions,Clouds,dailyrainin,SoftwareType,DateUTC
2013-09-01 00:01:00,71.1,11.8,29.17,North,0,0.0,0.0,1,0.00,,,0.00,WUHU216HW,2013-09-01 04:01:00,
2013-09-01 00:02:00,70.9,11.7,29.17,North,0,0.0,0.0,1,0.00,,,0.00,WUHU216HW,2013-09-01 04:02:00,
2013-09-01 00:03:00,70.9,11.7,29.17,North,0,0.0,0.0,1,0.00,,,0.00,WUHU216HW,2013-09-01 04:03:00,
2013-09-01 00:08:00,71.1,11.8,29.17,North,0,0.0,0.0,1,0.00,,,0.00,WUHU216HW,2013-09-01 04:08:00,
2013-09-01 00:13:00,70.9,11.7,29.16,North,0,0.0,0.0,1,0.00,,,0.00,WUHU216HW,2013-09-01 04:13:00,
2013-09-01 00:18:00,71.3,12.0,29.16,North,0,0.0,0.0,1,0.00,,,0.00,WUHU216HW,2013-09-01 04:18:00,
2013-09-01 00:23:00,71.1,11.8,29.17,North,0,0.0,0.0,1,0.00,,,0.00,WUHU216HW,2013-09-01 04:23:00,
2013-09-01 00:28:00,71.1,11.8,29.16,North,0,0.0,0.0,1,0.00,,,0.00,WUHU216HW,2013-09-01 04:28:00,
2013-09-01 00:33:00,71.3,12.0,29.16,North,0,0.0,0.0,1,0.00,,,0.00,WUHU216HW,2013-09-01 04:33:00,
2013-09-01 00:38:00,71.3,12.0,29.16,North,0,0.0,0.0,1,0.00,,,0.00,WUHU216HW,2013-09-01 04:38:00,
2013-09-01 00:43:00,71.3,12.0,29.17,North,0,0.0,0.0,1,0.00,,,0.00,WUHU216HW,2013-09-01 04:43:00,
2013-09-01 00:49:00,71.3,12.0,29.17,North,0,0.0,0.0,1,0.00,,,0.00,WUHU216HW,2013-09-01 04:49:00,
2013-09-01 00:54:00,71.3,12.0,29.17,North,0,0.0,0.0,1,0.00,,,0.00,WUHU216HW,2013-09-01 04:54:00,
2013-09-01 00:59:00,71.3,12.0,29.17,North,0,0.0,0.0,1,0.00,,,0.00,WUHU216HW,2013-09-01 04:59:00,
2013-09-01 01:04:00,71.3,12.0,29.19,North,0,0.0,0.0,1,0.00,,,0.00,WUHU216HW,2013-09-01 05:04:00,
2013-09-01 01:09:00,71.3,12.0,29.18,North,0,0.0,0.0,1,0.00,,,0.00,WUHU216HW,2013-09-01 05:09:00,
2013-09-01 01:14:00,71.1,11.8,29.18,North,0,0.0,0.0,1,0.00,,,0.00,WUHU216HW,2013-09-01 05:14:00,
2013-09-01 01:19:00,70.9,11.7,29.18,North,0,0.0,0.0,1,0.00,,,0.00,WUHU216HW,2013-09-01 05:19:00,
2013-09-01 01:24:00,70.9,11.7,29.18,North,0,0.0,0.0,1,0.00,,,0.00,WUHU216HW,2013-09-01 05:24:00,
2013-09-01 01:29:00,70.9,11.7,29.17,North,0,0.0,0.0,1,0.00,,,0.00,WUHU216HW,2013-09-01 05:29:00,
2013-09-01 01:35:00,70.7,11.5,29.17,North,0,0.0,0.0,1,0.00,,,0.00,WUHU216HW,2013-09-01 05:35:00,
2013-09-01 01:40:00,70.7,11.5,29.17,North,0,0.0,0.0,1,0.00,,,0.00,WUHU216HW,2013-09-01 05:40:00,
2013-09-01 01:45:00,70.9,11.7,29.17,North,0,0.0,0.0,1,0.00,,,0.00,WUHU216HW,2013-09-01 05:45:00,
2013-09-01 01:50:00,70.7,11.5,29.17,North,0,0.0,0.0,1,0.00,,,0.00,WUHU216HW,2013-09-01 05:50:00,
2013-09-01 01:55:00,70.7,11.5,29.17,North,0,0.0,0.0,1,0.00,,,0.00,WUHU216HW,2013-09-01 05:55:00,
2013-09-01 02:00:00,70.7,11.5,29.17,North,0,0.0,0.0,1,0.00,,,0.00,WUHU216HW,2013-09-01 06:00:00,
2013-09-01 02:05:00,70.6,11.3,29.16,North,0,0.0,0.0,1,0.00,,,0.00,WUHU216HW,2013-09-01 06:05:00,
2013-09-01 02:10:00,70.6,11.3,29.17,North,0,0.0,0.0,1,0.00,,,0.00,WUHU216HW,2013-09-01 06:10:00,
2013-09-01 02:15:00,70.4,11.3,29.16,North,0,0.0,0.0,1,0.00,,,0.00,WUHU216HW,2013-09-01 06:15:00,
2013-09-01 02:21:00,70.4,11.3,29.16,North,0,0.0,0.0,1,0.00,,,0.00,WUHU216HW,2013-09-01 06:21:00,
2013-09-01 02:26:00,70.4,11.3,29.17,North,0,0.0,0.0,1,0.00,,,0.00,WUHU216HW,2013-09-01 06:26:00,
2013-09-01 02:31:00,70.4,11.3,29.17,North,0,0.0,0.0,1,0.00,,,0.00,WUHU216HW,2013-09-01 06:31:00,
2013-09-01 02:36:00,70.2,11.1,29.17,North,0,0.0,0.0,1,0.00,,,0.00,WUHU216HW,2013-09-01 06:36:00,
2013-09-01 02:41:00,70.2,11.1,29.16,North,0,0.0,0.0,1,0.00,,,0.00,WUHU216HW,2013-09-01 06:41:00,
2013-09-01 02:46:00,70.2,11.1,29.16,North,0,0.0,0.0,1,0.00,,,0.00,WUHU216HW,2013-09-01 06:46:00,
2013-09-01 02:51:00,70.2,11.1,29.16,North,0,0.0,0.0,1,0.00,,,0.00,WUHU216HW,2013-09-01 06:51:00,
2013-09-01 02:56:00,70.2,11.1,29.16,North,0,0.0,0.0,1,0.00,,,0.00,WUHU216HW,2013-09-01 06:56:00,
2013-09-01 03:02:00,70.4,11.3,29.16,North,0,0.0,0.0,1,0.00,,,0.00,WUHU216HW,2013-09-01 07:02:00,
2013-09-01 03:07:00,70.4,11.3,29.15,North,0,0.0,0.0,1,0.00,,,0.00,WUHU216HW,2013-09-01 07:07:00,
2013-09-01 03:12:00,70.2,11.1,29.15,North,0,0.0,0.0,1,0.00,,,0.00,WUHU216HW,2013-09-01 07:12:00,
2013-09-01 03:17:00,70.2,11.1,29.15,North,0,0.0,0.0,1,0.00,,,0.00,WUHU216HW,2013-09-01 07:17:00,
2013-09-01 03:22:00,70.2,11.1,29.14,North,0,0.0,0.0,1,0.00,,,0.00,WUHU216HW,2013-09-01 07:22:00,
2013-09-01 03:27:00,70.2,11.1,29.14,North,0,0.0,0.0,1,0.00,,,0.00,WUHU216HW,2013-09-01 07:27:00,
2013-09-01 03:32:00,70.2,11.1,29.14,North,0,0.0,0.0,1,0.00,,,0.00,WUHU216HW,2013-09-01 07:32:00,
2013-09-01 03:37:00,70.2,11.1,29.14,North,0,0.0,0.0,1,0.00,,,0.00,WUHU216HW,2013-09-01 07:37:00,
2013-09-01 03:42:00,70.2,11.1,29.14,North,0,0.0,0.0,1,0.00,,,0.00,WUHU216HW,2013-09-01 07:42:00,
2013-09-01 03:48:00,70.2,11.1,29.14,North,0,0.0,0.0,1,0.00,,,0.00,WUHU216HW,2013-09-01 07:48:00,
2013-09-01 03:53:00,70.0,11.0,29.14,North,0,0.0,0.0,1,0.00,,,0.00,WUHU216HW,2013-09-01 07:53:00,
2013-09-01 03:58:00,70.0,11.0,29.14,North,0,0.0,0.0,1,0.00,,,0.00,WUHU216HW,2013-09-01 07:58:00,
2013-09-01 04:03:00,69.8,10.8,29.14,North,0,0.0,0.0,1,0.00,,,0.00,WUHU216HW,2013-09-01 08:03:00,
2013-09-01 04:08:00,69.8,10.8,29.14,North,0,0.0,0.0,1,0.00,,,0.00,WUHU216HW,2013-09-01 08:08:00,
2013-09-01 04:13:00,69.8,10.8,29.14,North,0,0.0,0.0,1,0.00,,,0.00,WUHU216HW,2013-09-01 08:13:00,
2013-09-01 04:18:00,70.0,11.0,29.14,North,0,0.0,0.0,1,0.00,,,0.00,WUHU216HW,2013-09-01 08:18:00,
2013-09-01 04:23:00,69.8,10.8,29.14,North,0,0.0,0.0,1,0.00,,,0.00,WUHU216HW,2013-09-01 08:23:00,
2013-09-01 04:28:00,69.7,10.7,29.14,North,0,0.0,0.0,1,0.00,,,0.00,WUHU216HW,2013-09-01 08:28:00,
2013-09-01 04:33:00,69.5,10.5,29.14,North,0,0.0,0.0,1,0.00,,,0.00,WUHU216HW,2013-09-01 08:33:00,
2013-09-01 04:38:00,69.3,10.5,29.14,North,0,0.0,0.0,1,0.00,,,0.00,WUHU216HW,2013-09-01 08:38:00,
2013-09-01 04:44:00,69.3,10.5,29.14,North,0,0.0,0.0,1,0.00,,,0.00,WUHU216HW,2013-09-01 08:44:00,
2013-09-01 04:49:00,69.3,10.5,29.13,North,0,0.0,0.0,1,0.00,,,0.00,WUHU216HW,2013-09-01 08:49:00,
2013-09-01 04:54:00,69.3,10.5,29.13,North,0,0.0,0.0,1,0.00,,,0.00,WUHU216HW,2013-09-01 08:54:00,
2013-09-01 04:59:00,69.3,10.5,29.13,North,0,0.0,0.0,1,0.00,,,0.00,WUHU216HW,2013-09-01 08:59:00,
2013-09-01 05:04:00,69.3,10.5,29.14,North,0,0.0,0.0,1,0.00,,,0.00,WUHU216HW,2013-09-01 09:04:00,
2013-09-01 05:09:00,69.3,10.5,29.14,North,0,0.0,0.0,1,0.00,,,0.00,WUHU216HW,2013-09-01 09:09:00,
2013-09-01 05:14:00,69.3,10.5,29.13,North,0,0.0,0.0,1,0.00,,,0.00,WUHU216HW,2013-09-01 09:14:00,
2013-09-01 05:19:00,69.3,10.5,29.14,North,0,0.0,0.0,1,0.00,,,0.00,WUHU216HW,2013-09-01 09:19:00,
2013-09-01 05:24:00,69.5,10.5,29.14,North,0,0.0,0.0,1,0.00,,,0.00,WUHU216HW,2013-09-01 09:24:00,
2013-09-01 05:29:00,69.5,10.5,29.14,North,0,0.0,0.0,1,0.00,,,0.00,WUHU216HW,2013-09-01 09:29:00,
2013-09-01 05:34:00,69.7,10.7,29.15,North,0,0.0,0.0,1,0.00,,,0.00,WUHU216HW,2013-09-01 09:34:00,
2013-09-01 05:39:00,69.7,10.7,29.15,North,0,0.0,0.0,1,0.00,,,0.00,WUHU216HW,2013-09-01 09:39:00,
2013-09-01 05:44:00,69.7,10.7,29.15,North,0,0.0,0.0,1,0.00,,,0.00,WUHU216HW,2013-09-01 09:44:00,
2013-09-01 05:49:00,69.5,10.5,29.16,North,0,0.0,0.0,1,0.00,,,0.00,WUHU216HW,2013-09-01 09:49:00,
2013-09-01 05:54:00,69.5,10.5,29.16,North,0,0.0,0.0,1,0.00,,,0.00,WUHU216HW,2013-09-01 09:54:00,
2013-09-01 05:59:00,69.5,10.5,29.16,North,0,0.0,0.0,1,0.00,,,0.00,WUHU216HW,2013-09-01 09:59:00,
2013-09-01 06:05:00,69.5,10.5,29.16,North,0,0.0,0.0,1,0.00,,,0.00,WUHU216HW,2013-09-01 10:05:00,
2013-09-01 06:10:00,69.3,10.5,29.16,North,0,0.0,0.0,1,0.00,,,0.00,WUHU216HW,2013-09-01 10:10:00,
2013-09-01 06:15:00,69.3,10.5,29.16,North,0,0.0,0.0,1,0.00,,,0.00,WUHU216HW,2013-09-01 10:15:00,
2013-09-01 06:20:00,69.1,10.3,29.16,North,0,0.0,0.0,1,0.00,,,0.00,WUHU216HW,2013-09-01 10:20:00,
2013-09-01 06:25:00,68.9,10.2,29.15,North,0,0.0,0.0,1,0.00,,,0.00,WUHU216HW,2013-09-01 10:25:00,
2013-09-01 06:30:00,68.8,10.1,29.15,North,0,0.0,0.0,1,0.00,,,0.00,WUHU216HW,2013-09-01 10:30:00,
2013-09-01 06:35:00,68.6,9.9,29.15,North,0,0.0,0.0,1,0.00,,,0.00,WUHU216HW,2013-09-01 10:35:00,
2013-09-01 06:40:00,68.4,9.8,29.15,North,0,0.0,0.0,1,0.00,,,0.00,WUHU216HW,2013-09-01 10:40:00,
2013-09-01 06:45:00,68.0,9.5,29.15,North,0,0.0,0.0,1,0.00,,,0.00,WUHU216HW,2013-09-01 10:45:00,
2013-09-01 06:50:00,68.2,9.6,29.16,North,0,0.0,0.0,1,0.00,,,0.00,WUHU216HW,2013-09-01 10:50:00,
2013-09-01 06:55:00,68.4,9.8,29.16,North,0,0.0,0.0,1,0.00,,,0.00,WUHU216HW,2013-09-01 10:55:00,
2013-09-01 07:00:00,68.6,9.9,29.16,North,0,0.0,0.0,1,0.00,,,0.00,WUHU216HW,2013-09-01 11:00:00,
2013-09-01 07:05:00,68.6,9.9,29.17,North,0,0.0,0.0,1,0.00,,,0.00,WUHU216HW,2013-09-01 11:05:00,
2013-09-01 07:10:00,68.8,10.1,29.17,North,0,0.0,0.0,1,0.00,,,0.00,WUHU216HW,2013-09-01 11:10:00,
2013-09-01 07:16:00,68.8,10.1,29.17,North,0,0.0,0.0,1,0.00,,,0.00,WUHU216HW,2013-09-01 11:16:00,
2013-09-01 07:21:00,68.8,10.1,29.17,North,0,0.0,0.0,1,0.00,,,0.00,WUHU216HW,2013-09-01 11:21:00,
2013-09-01 07:26:00,68.9,10.2,29.18,North,0,0.0,0.0,1,0.00,,,0.00,WUHU216HW,2013-09-01 11:26:00,
2013-09-01 07:31:00,69.1,10.3,29.18,North,0,0.0,0.0,1,0.00,,,0.00,WUHU216HW,2013-09-01 11:31:00,
2013-09-01 07:36:00,69.1,10.3,29.18,North,0,0.0,0.0,1,0.00,,,0.00,WUHU216HW,2013-09-01 11:36:00,
2013-09-01 07:41:00,69.1,10.3,29.19,North,0,0.0,0.0,1,0.00,,,0.00,WUHU216HW,2013-09-01 11:41:00,
2013-09-01 07:46:00,69.3,10.5,29.19,North,0,0.0,0.0,1,0.00,,,0.00,WUHU216HW,2013-09-01 11:46:00,
2013-09-01 07:51:00,69.5,10.5,29.19,North,0,0.0,0.0,1,0.00,,,0.00,WUHU216HW,2013-09-01 11:51:00,
2013-09-01 07:56:00,69.5,10.5,29.19,North,0,0.0,0.0,1,0.00,,,0.00,WUHU216HW,2013-09-01 11:56:00,
2013-09-01 08:01:00,69.7,10.7,29.19,North,0,0.0,0.0,1,0.00,,,0.00,WUHU216HW,2013-09-01 12:01:00,
2013-09-01 08:06:00,69.8,10.8,29.19,North,0,0.0,0.0,1,0.00,,,0.00,WUHU216HW,2013-09-01 12:06:00,
2013-09-01 08:11:00,70.0,11.0,29.19,North,0,0.0,0.0,1,0.00,,,0.00,WUHU216HW,2013-09-01 12:11:00,
2013-09-01 08:16:00,70.0,11.0,29.19,North,0,0.0,0.0,1,0.00,,,0.00,WUHU216HW,2013-09-01 12:16:00,
2013-09-01 08:21:00,70.2,11.1,29.18,North,0,0.0,0.0,1,0.00,,,0.00,WUHU216HW,2013-09-01 12:21:00,
2013-09-01 08:26:00,70.4,11.3,29.19,North,0,0.0,0.0,1,0.00,,,0.00,WUHU216HW,2013-09-01 12:26:00,
2013-09-01 08:32:00,70.6,11.3,29.19,North,0,0.0,0.0,1,0.00,,,0.00,WUHU216HW,2013-09-01 12:32:00,
2013-09-01 08:37:00,70.7,11.5,29.18,North,0,0.0,0.0,1,0.00,,,0.00,WUHU216HW,2013-09-01 12:37:00,
2013-09-01 08:42:00,70.7,11.5,29.18,North,0,0.0,0.0,1,0.00,,,0.00,WUHU216HW,2013-09-01 12:42:00,
2013-09-01 08:47:00,70.9,11.7,29.19,North,0,0.0,0.0,1,0.00,,,0.00,WUHU216HW,2013-09-01 12:47:00,
2013-09-01 08:52:00,71.1,11.8,29.18,North,0,0.0,0.0,1,0.00,,,0.00,WUHU216HW,2013-09-01 12:52:00,
2013-09-01 08:57:00,71.3,12.0,29.18,North,0,0.0,0.0,1,0.00,,,0.00,WUHU216HW,2013-09-01 12:57:00,
2013-09-01 09:02:00,71.6,12.2,29.18,North,0,0.0,0.0,1,0.00,,,0.00,WUHU216HW,2013-09-01 13:02:00,
2013-09-01 09:07:00,71.8,12.4,29.18,North,0,0.0,0.0,1,0.00,,,0.00,WUHU216HW,2013-09-01 13:07:00,
2013-09-01 09:12:00,71.8,12.4,29.18,North,0,0.0,0.0,1,0.00,,,0.00,WUHU216HW,2013-09-01 13:12:00,
2013-09-01 09:17:00,72.0,12.5,29.18,North,0,0.0,0.0,1,0.00,,,0.00,WUHU216HW,2013-09-01 13:17:00,
2013-09-01 09:22:00,72.2,12.7,29.17,North,0,0.0,0.0,1,0.00,,,0.00,WUHU216HW,2013-09-01 13:22:00,
2013-09-01 09:27:00,72.5,13.0,29.17,North,0,0.0,0.0,1,0.00,,,0.00,WUHU216HW,2013-09-01 13:27:00,
2013-09-01 09:32:00,72.5,13.0,29.17,North,0,0.0,0.0,1,0.00,,,0.00,WUHU216HW,2013-09-01 13:32:00,
2013-09-01 09:38:00,72.7,13.2,29.17,North,0,0.0,0.0,1,0.00,,,0.00,WUHU216HW,2013-09-01 13:38:00,
2013-09-01 09:43:00,73.1,13.4,29.17,North,0,0.0,0.0,1,0.00,,,0.00,WUHU216HW,2013-09-01 13:43:00,
2013-09-01 09:48:00,73.3,13.5,29.17,North,0,0.0,0.0,1,0.00,,,0.00,WUHU216HW,2013-09-01 13:48:00,
2013-09-01 09:53:00,73.4,13.7,29.17,North,0,0.0,0.0,1,0.00,,,0.00,WUHU216HW,2013-09-01 13:53:00,
2013-09-01 09:58:00,73.6,13.8,29.17,North,0,0.0,0.0,1,0.00,,,0.00,WUHU216HW,2013-09-01 13:58:00,
2013-09-01 10:03:00,73.8,14.0,29.17,North,0,0.0,0.0,1,0.00,,,0.00,WUHU216HW,2013-09-01 14:03:00,
2013-09-01 10:08:00,73.8,14.0,29.17,North,0,0.0,0.0,1,0.00,,,0.00,WUHU216HW,2013-09-01 14:08:00,
2013-09-01 10:13:00,73.8,14.0,29.17,North,0,0.0,0.0,1,0.00,,,0.00,WUHU216HW,2013-09-01 14:13:00,
2013-09-01 10:18:00,73.8,14.0,29.17,North,0,0.0,0.0,1,0.00,,,0.00,WUHU216HW,2013-09-01 14:18:00,
2013-09-01 10:23:00,74.0,14.0,29.17,North,0,0.0,0.0,1,0.00,,,0.00,WUHU216HW,2013-09-01 14:23:00,
2013-09-01 10:28:00,74.3,14.3,29.17,North,0,0.0,0.0,1,0.00,,,0.00,WUHU216HW,2013-09-01 14:28:00,
2013-09-01 10:33:00,74.3,14.3,29.18,North,0,0.0,0.0,1,0.00,,,0.00,WUHU216HW,2013-09-01 14:33:00,
2013-09-01 10:38:00,74.5,14.4,29.18,North,0,0.0,0.0,1,0.00,,,0.00,WUHU216HW,2013-09-01 14:38:00,
2013-09-01 10:43:00,74.5,14.4,29.18,North,0,0.0,0.0,1,0.00,,,0.00,WUHU216HW,2013-09-01 14:43:00,
2013-09-01 10:48:00,74.5,14.4,29.18,North,0,0.0,0.0,1,0.00,,,0.00,WUHU216HW,2013-09-01 14:48:00,
2013-09-01 10:54:00,75.2,14.9,29.19,North,0,0.0,0.0,1,0.00,,,0.00,WUHU216HW,2013-09-01 14:54:00,
2013-09-01 10:59:00,75.8,15.4,29.19,North,0,0.0,0.0,1,0.00,,,0.00,WUHU216HW,2013-09-01 14:59:00,
2013-09-01 11:04:00,76.7,16.1,29.19,North,0,0.0,0.0,1,0.00,,,0.00,WUHU216HW,2013-09-01 15:04:00,
2013-09-01 11:09:00,77.0,16.4,29.19,North,0,0.0,0.0,1,0.00,,,0.00,WUHU216HW,2013-09-01 15:09:00,
2013-09-01 11:14:00,77.0,16.4,29.18,North,0,0.0,0.0,1,0.00,,,0.00,WUHU216HW,2013-09-01 15:14:00,
2013-09-01 11:19:00,77.4,16.7,29.18,North,0,0.0,0.0,1,0.00,,,0.00,WUHU216HW,2013-09-01 15:19:00,
2013-09-01 11:24:00,77.6,16.7,29.18,North,0,0.0,0.0,1,0.00,,,0.00,WUHU216HW,2013-09-01 15:24:00,
2013-09-01 11:29:00,77.8,16.9,29.18,North,0,0.0,0.0,1,0.00,,,0.00,WUHU216HW,2013-09-01 15:29:00,
2013-09-01 11:34:00,78.5,17.4,29.18,North,0,0.0,0.0,1,0.00,,,0.00,WUHU216HW,2013-09-01 15:34:00,
2013-09-01 11:39:00,79.2,17.9,29.18,North,0,0.0,0.0,1,0.00,,,0.00,WUHU216HW,2013-09-01 15:39:00,
2013-09-01 11:44:00,79.2,17.9,29.18,North,0,0.0,0.0,1,0.00,,,0.00,WUHU216HW,2013-09-01 15:44:00,
2013-09-01 11:49:00,79.4,18.1,29.18,North,0,0.0,0.0,1,0.00,,,0.00,WUHU216HW,2013-09-01 15:49:00,
2013-09-01 11:54:00,80.3,18.8,29.18,North,0,0.0,0.0,1,0.00,,,0.00,WUHU216HW,2013-09-01 15:54:00,
2013-09-01 11:59:00,81.0,19.4,29.18,North,0,0.0,0.0,1,0.00,,,0.00,WUHU216HW,2013-09-01 15:59:00,
2013-09-01 12:04:00,81.0,19.4,29.18,North,0,0.0,0.0,1,0.00,,,0.00,WUHU216HW,2013-09-01 16:04:00,
2013-09-01 12:10:00,81.2,19.5,29.18,North,0,0.0,0.0,1,0.00,,,0.00,WUHU216HW,2013-09-01 16:10:00,
2013-09-01 12:15:00,82.1,20.3,29.18,North,0,0.0,0.0,1,0.00,,,0.00,WUHU216HW,2013-09-01 16:15:00,
2013-09-01 12:20:00,82.8,20.8,29.18,North,0,0.0,0.0,1,0.00,,,0.00,WUHU216HW,2013-09-01 16:20:00,
2013-09-01 12:25:00,84.1,21.7,29.18,North,0,0.0,0.0,1,0.00,,,0.00,WUHU216HW,2013-09-01 16:25:00,
2013-09-01 12:30:00,83.9,21.5,29.18,North,0,0.0,0.0,1,0.00,,,0.00,WUHU216HW,2013-09-01 16:30:00,
2013-09-01 12:35:00,83.2,21.1,29.18,North,0,0.0,0.0,1,0.00,,,0.00,WUHU216HW,2013-09-01 16:35:00,
2013-09-01 12:40:00,84.1,21.7,29.17,North,0,0.0,0.0,1,0.00,,,0.00,WUHU216HW,2013-09-01 16:40:00,
2013-09-01 12:45:00,85.1,22.5,29.17,North,0,0.0,0.0,1,0.00,,,0.00,WUHU216HW,2013-09-01 16:45:00,
2013-09-01 12:50:00,86.2,23.4,29.17,North,0,0.0,0.0,1,0.00,,,0.00,WUHU216HW,2013-09-01 16:50:00,
2013-09-01 12:55:00,86.4,23.5,29.17,North,0,0.0,0.0,1,0.00,,,0.00,WUHU216HW,2013-09-01 16:55:00,
2013-09-01 13:00:00,86.6,23.7,29.17,North,0,0.0,0.0,1,0.00,,,0.00,WUHU216HW,2013-09-01 17:00:00,
2013-09-01 13:05:00,86.9,23.9,29.17,North,0,0.0,0.0,1,0.00,,,0.00,WUHU216HW,2013-09-01 17:05:00,
2013-09-01 13:10:00,86.9,23.9,29.17,North,0,0.0,0.0,1,0.00,,,0.00,WUHU216HW,2013-09-01 17:10:00,
2013-09-01 13:15:00,86.8,23.8,29.17,North,0,0.0,0.0,1,0.00,,,0.00,WUHU216HW,2013-09-01 17:15:00,
2013-09-01 13:20:00,86.0,23.2,29.17,North,0,0.0,0.0,1,0.00,,,0.00,WUHU216HW,2013-09-01 17:20:00,
2013-09-01 13:26:00,85.1,22.5,29.18,North,0,0.0,0.0,1,0.00,,,0.00,WUHU216HW,2013-09-01 17:26:00,
2013-09-01 13:31:00,84.6,22.1,29.17,North,0,0.0,0.0,1,0.00,,,0.00,WUHU216HW,2013-09-01 17:31:00,
2013-09-01 13:36:00,84.2,21.8,29.17,North,0,0.0,0.0,1,0.00,,,0.00,WUHU216HW,2013-09-01 17:36:00,
2013-09-01 13:41:00,84.4,22.0,29.17,North,0,0.0,0.0,1,0.00,,,0.00,WUHU216HW,2013-09-01 17:41:00,
2013-09-01 13:46:00,84.2,21.8,29.17,North,0,0.0,0.0,1,0.00,,,0.00,WUHU216HW,2013-09-01 17:46:00,
2013-09-01 13:51:00,84.2,21.8,29.17,North,0,0.0,0.0,1,0.00,,,0.00,WUHU216HW,2013-09-01 17:51:00,
2013-09-01 13:56:00,84.4,22.0,29.18,North,0,0.0,0.0,1,0.00,,,0.00,WUHU216HW,2013-09-01 17:56:00,
2013-09-01 14:01:00,84.8,22.2,29.18,North,0,0.0,0.0,1,0.00,,,0.00,WUHU216HW,2013-09-01 18:01:00,
2013-09-01 14:06:00,85.3,22.7,29.18,North,0,0.0,0.0,1,0.00,,,0.00,WUHU216HW,2013-09-01 18:06:00,
2013-09-01 14:11:00,85.7,23.0,29.17,North,0,0.0,0.0,1,0.00,,,0.00,WUHU216HW,2013-09-01 18:11:00,
2013-09-01 14:17:00,85.9,23.0,29.17,North,0,0.0,0.0,1,0.00,,,0.00,WUHU216HW,2013-09-01 18:17:00,
2013-09-01 14:22:00,85.7,23.0,29.18,North,0,0.0,0.0,1,0.00,,,0.00,WUHU216HW,2013-09-01 18:22:00,
2013-09-01 14:27:00,86.0,23.2,29.18,North,0,0.0,0.0,1,0.00,,,0.00,WUHU216HW,2013-09-01 18:27:00,
2013-09-01 14:32:00,86.8,23.8,29.18,North,0,0.0,0.0,1,0.00,,,0.00,WUHU216HW,2013-09-01 18:32:00,
2013-09-01 14:37:00,87.3,24.2,29.17,North,0,0.0,0.0,1,0.00,,,0.00,WUHU216HW,2013-09-01 18:37:00,
2013-09-01 14:43:00,87.8,24.7,29.17,North,0,0.0,0.0,1,0.00,,,0.00,WUHU216HW,2013-09-01 18:43:00,
2013-09-01 14:48:00,88.7,25.3,29.17,North,0,0.0,0.0,1,0.00,,,0.00,WUHU216HW,2013-09-01 18:48:00,
2013-09-01 14:53:00,88.0,24.8,29.16,North,0,0.0,0.0,1,0.00,,,0.00,WUHU216HW,2013-09-01 18:53:00,
2013-09-01 14:58:00,86.9,23.9,29.16,North,0,0.0,0.0,1,0.00,,,0.00,WUHU216HW,2013-09-01 18:58:00,
2013-09-01 15:03:00,88.0,24.8,29.16,North,0,0.0,0.0,1,0.00,,,0.00,WUHU216HW,2013-09-01 19:03:00,
2013-09-01 15:08:00,88.6,25.2,29.16,North,0,0.0,0.0,1,0.00,,,0.00,WUHU216HW,2013-09-01 19:08:00,
2013-09-01 15:14:00,90.5,26.6,29.15,North,0,0.0,0.0,1,0.00,,,0.00,WUHU216HW,2013-09-01 19:14:00,
2013-09-01 15:19:00,91.1,27.1,29.16,North,0,0.0,0.0,1,0.00,,,0.00,WUHU216HW,2013-09-01 19:19:00,
2013-09-01 15:24:00,92.9,28.4,29.16,North,0,0.0,0.0,1,0.00,,,0.00,WUHU216HW,2013-09-01 19:24:00,
2013-09-01 15:29:00,94.0,29.2,29.16,North,0,0.0,0.0,1,0.00,,,0.00,WUHU216HW,2013-09-01 19:29:00,
2013-09-01 15:34:00,93.8,29.1,29.15,North,0,0.0,0.0,1,0.00,,,0.00,WUHU216HW,2013-09-01 19:34:00,
2013-09-01 15:39:00,93.6,28.9,29.15,North,0,0.0,0.0,1,0.00,,,0.00,WUHU216HW,2013-09-01 19:39:00,
2013-09-01 15:44:00,95.2,30.2,29.15,North,0,0.0,0.0,1,0.00,,,0.00,WUHU216HW,2013-09-01 19:44:00,
2013-09-01 15:49:00,92.5,28.1,29.15,North,0,0.0,0.0,1,0.00,,,0.00,WUHU216HW,2013-09-01 19:49:00,
2013-09-01 15:54:00,90.0,26.2,29.14,North,0,0.0,0.0,1,0.00,,,0.00,WUHU216HW,2013-09-01 19:54:00,
2013-09-01 16:00:00,92.2,27.9,29.14,North,0,0.0,0.0,1,0.00,,,0.00,WUHU216HW,2013-09-01 20:00:00,
2013-09-01 16:05:00,94.0,29.2,29.14,North,0,0.0,0.0,1,0.00,,,0.00,WUHU216HW,2013-09-01 20:05:00,
2013-09-01 16:10:00,93.1,28.5,29.14,North,0,0.0,0.0,1,0.00,,,0.00,WUHU216HW,2013-09-01 20:10:00,
2013-09-01 16:15:00,92.5,28.1,29.15,North,0,0.0,0.0,1,0.00,,,0.00,WUHU216HW,2013-09-01 20:15:00,
2013-09-01 16:20:00,92.3,28.0,29.15,North,0,0.0,0.0,1,0.00,,,0.00,WUHU216HW,2013-09-01 20:20:00,
2013-09-01 16:25:00,92.5,28.1,29.15,North,0,0.0,0.0,1,0.00,,,0.00,WUHU216HW,2013-09-01 20:25:00,
2013-09-01 16:30:00,94.3,29.5,29.14,North,0,0.0,0.0,1,0.00,,,0.00,WUHU216HW,2013-09-01 20:30:00,
2013-09-01 16:35:00,93.1,28.5,29.15,North,0,0.0,0.0,1,0.00,,,0.00,WUHU216HW,2013-09-01 20:35:00,
2013-09-01 16:40:00,93.2,28.6,29.14,North,0,0.0,0.0,1,0.00,,,0.00,WUHU216HW,2013-09-01 20:40:00,
2013-09-01 16:46:00,92.5,28.1,29.15,North,0,0.0,0.0,1,0.00,,,0.00,WUHU216HW,2013-09-01 20:46:00,
2013-09-01 16:51:00,92.5,28.1,29.15,North,0,0.0,0.0,1,0.00,,,0.00,WUHU216HW,2013-09-01 20:51:00,
2013-09-01 16:56:00,92.7,28.3,29.15,North,0,0.0,0.0,1,0.00,,,0.00,WUHU216HW,2013-09-01 20:56:00,
2013-09-01 17:01:00,94.0,29.2,29.15,North,0,0.0,0.0,1,0.00,,,0.00,WUHU216HW,2013-09-01 21:01:00,
2013-09-01 17:06:00,95.8,30.6,29.15,North,0,0.0,0.0,1,0.00,,,0.00,WUHU216HW,2013-09-01 21:06:00,
2013-09-01 17:11:00,94.7,29.8,29.15,North,0,0.0,0.0,1,0.00,,,0.00,WUHU216HW,2013-09-01 21:11:00,
2013-09-01 17:16:00,93.4,28.8,29.14,North,0,0.0,0.0,1,0.00,,,0.00,WUHU216HW,2013-09-01 21:16:00,
2013-09-01 17:21:00,94.0,29.2,29.14,North,0,0.0,0.0,1,0.00,,,0.00,WUHU216HW,2013-09-01 21:21:00,
2013-09-01 17:27:00,95.0,30.1,29.14,North,0,0.0,0.0,1,0.00,,,0.00,WUHU216HW,2013-09-01 21:27:00,
2013-09-01 17:32:00,94.5,29.6,29.14,North,0,0.0,0.0,1,0.00,,,0.00,WUHU216HW,2013-09-01 21:32:00,
2013-09-01 17:37:00,93.6,28.9,29.14,North,0,0.0,0.0,1,0.00,,,0.00,WUHU216HW,2013-09-01 21:37:00,
2013-09-01 17:42:00,90.4,26.5,29.14,North,0,0.0,0.0,1,0.00,,,0.00,WUHU216HW,2013-09-01 21:42:00,
2013-09-01 17:47:00,88.6,25.2,29.14,North,0,0.0,0.0,1,0.00,,,0.00,WUHU216HW,2013-09-01 21:47:00,
2013-09-01 17:52:00,88.7,25.3,29.14,North,0,0.0,0.0,1,0.00,,,0.00,WUHU216HW,2013-09-01 21:52:00,
2013-09-01 17:57:00,88.6,25.2,29.14,North,0,0.0,0.0,1,0.00,,,0.00,WUHU216HW,2013-09-01 21:57:00,
2013-09-01 18:02:00,88.4,25.0,29.14,North,0,0.0,0.0,1,0.00,,,0.00,WUHU216HW,2013-09-01 22:02:00,
2013-09-01 18:07:00,88.6,25.2,29.14,North,0,0.0,0.0,1,0.00,,,0.00,WUHU216HW,2013-09-01 22:07:00,
2013-09-01 18:12:00,89.3,25.7,29.14,North,0,0.0,0.0,1,0.00,,,0.00,WUHU216HW,2013-09-01 22:12:00,
2013-09-01 18:17:00,91.3,27.2,29.13,North,0,0.0,0.0,1,0.00,,,0.00,WUHU216HW,2013-09-01 22:17:00,
2013-09-01 18:22:00,92.9,28.4,29.13,North,0,0.0,0.0,1,0.00,,,0.00,WUHU216HW,2013-09-01 22:22:00,
2013-09-01 18:27:00,92.9,28.4,29.13,North,0,0.0,0.0,1,0.00,,,0.00,WUHU216HW,2013-09-01 22:27:00,
2013-09-01 18:33:00,93.1,28.5,29.14,North,0,0.0,0.0,1,0.00,,,0.00,WUHU216HW,2013-09-01 22:33:00,
2013-09-01 18:38:00,89.6,25.9,29.14,North,0,0.0,0.0,1,0.00,,,0.00,WUHU216HW,2013-09-01 22:38:00,
2013-09-01 18:43:00,87.3,24.2,29.14,North,0,0.0,0.0,1,0.00,,,0.00,WUHU216HW,2013-09-01 22:43:00,
2013-09-01 18:48:00,86.0,23.2,29.14,North,0,0.0,0.0,1,0.00,,,0.00,WUHU216HW,2013-09-01 22:48:00,
2013-09-01 18:53:00,85.3,22.7,29.14,North,0,0.0,0.0,1,0.00,,,0.00,WUHU216HW,2013-09-01 22:53:00,
2013-09-01 18:58:00,84.4,22.0,29.14,North,0,0.0,0.0,1,0.00,,,0.00,WUHU216HW,2013-09-01 22:58:00,
2013-09-01 19:03:00,83.3,21.2,29.14,North,0,0.0,0.0,1,0.00,,,0.00,WUHU216HW,2013-09-01 23:03:00,
2013-09-01 19:08:00,82.8,20.8,29.14,North,0,0.0,0.0,1,0.00,,,0.00,WUHU216HW,2013-09-01 23:08:00,
2013-09-01 19:14:00,82.4,20.5,29.15,North,0,0.0,0.0,1,0.00,,,0.00,WUHU216HW,2013-09-01 23:14:00,
2013-09-01 19:19:00,82.3,20.3,29.15,North,0,0.0,0.0,1,0.00,,,0.00,WUHU216HW,2013-09-01 23:19:00,
2013-09-01 19:24:00,81.7,20.0,29.14,North,0,0.0,0.0,1,0.00,,,0.00,WUHU216HW,2013-09-01 23:24:00,
2013-09-01 19:29:00,81.7,20.0,29.15,North,0,0.0,0.0,1,0.00,,,0.00,WUHU216HW,2013-09-01 23:29:00,
2013-09-01 19:34:00,81.2,19.5,29.15,North,0,0.0,0.0,1,0.00,,,0.00,WUHU216HW,2013-09-01 23:34:00,
2013-09-01 19:39:00,80.8,19.3,29.16,North,0,0.0,0.0,1,0.00,,,0.00,WUHU216HW,2013-09-01 23:39:00,
2013-09-01 19:44:00,80.3,18.8,29.16,North,0,0.0,0.0,1,0.00,,,0.00,WUHU216HW,2013-09-01 23:44:00,
2013-09-01 19:49:00,79.9,18.6,29.16,North,0,0.0,0.0,1,0.00,,,0.00,WUHU216HW,2013-09-01 23:49:00,
2013-09-01 19:54:00,79.7,18.4,29.16,North,0,0.0,0.0,1,0.00,,,0.00,WUHU216HW,2013-09-01 23:54:00,
2013-09-01 20:00:00,79.2,17.9,29.16,North,0,0.0,0.0,1,0.00,,,0.00,WUHU216HW,2013-09-02 00:00:00,
2013-09-01 20:05:00,78.8,17.6,29.16,North,0,0.0,0.0,1,0.00,,,0.00,WUHU216HW,2013-09-02 00:05:00,
2013-09-01 20:10:00,78.5,17.4,29.16,North,0,0.0,0.0,1,0.00,,,0.00,WUHU216HW,2013-09-02 00:10:00,
2013-09-01 20:15:00,78.1,17.1,29.16,North,0,0.0,0.0,1,0.00,,,0.00,WUHU216HW,2013-09-02 00:15:00,
2013-09-01 20:20:00,77.8,16.9,29.16,North,0,0.0,0.0,1,0.00,,,0.00,WUHU216HW,2013-09-02 00:20:00,
2013-09-01 20:25:00,77.4,16.7,29.16,North,0,0.0,0.0,1,0.00,,,0.00,WUHU216HW,2013-09-02 00:25:00,
2013-09-01 20:30:00,76.9,16.2,29.16,North,0,0.0,0.0,1,0.00,,,0.00,WUHU216HW,2013-09-02 00:30:00,
2013-09-01 20:35:00,76.7,16.1,29.16,North,0,0.0,0.0,1,0.00,,,0.00,WUHU216HW,2013-09-02 00:35:00,
2013-09-01 20:41:00,76.7,16.1,29.16,North,0,0.0,0.0,1,0.00,,,0.00,WUHU216HW,2013-09-02 00:41:00,
2013-09-01 20:46:00,76.5,15.9,29.16,North,0,0.0,0.0,1,0.00,,,0.00,WUHU216HW,2013-09-02 00:46:00,
2013-09-01 20:51:00,76.3,15.9,29.16,North,0,0.0,0.0,1,0.00,,,0.00,WUHU216HW,2013-09-02 00:51:00,
2013-09-01 20:56:00,76.1,15.7,29.16,North,0,0.0,0.0,1,0.00,,,0.00,WUHU216HW,2013-09-02 00:56:00,
2013-09-01 21:01:00,75.8,15.4,29.16,North,0,0.0,0.0,1,0.00,,,0.00,WUHU216HW,2013-09-02 01:01:00,
2013-09-01 21:06:00,75.4,15.1,29.17,North,0,0.0,0.0,1,0.00,,,0.00,WUHU216HW,2013-09-02 01:06:00,
2013-09-01 21:11:00,75.1,14.9,29.17,North,0,0.0,0.0,1,0.00,,,0.00,WUHU216HW,2013-09-02 01:11:00,
2013-09-01 21:16:00,74.7,14.6,29.17,North,0,0.0,0.0,1,0.00,,,0.00,WUHU216HW,2013-09-02 01:16:00,
2013-09-01 21:21:00,74.3,14.3,29.17,North,0,0.0,0.0,1,0.00,,,0.00,WUHU216HW,2013-09-02 01:21:00,
2013-09-01 21:27:00,74.2,14.2,29.18,North,0,0.0,0.0,1,0.00,,,0.00,WUHU216HW,2013-09-02 01:27:00,
2013-09-01 21:32:00,74.0,14.0,29.18,North,0,0.0,0.0,1,0.00,,,0.00,WUHU216HW,2013-09-02 01:32:00,
2013-09-01 21:37:00,73.8,14.0,29.17,North,0,0.0,0.0,1,0.00,,,0.00,WUHU216HW,2013-09-02 01:37:00,
2013-09-01 21:42:00,73.8,14.0,29.18,North,0,0.0,0.0,1,0.00,,,0.00,WUHU216HW,2013-09-02 01:42:00,
2013-09-01 21:47:00,74.0,14.0,29.18,North,0,0.0,0.0,1,0.00,,,0.00,WUHU216HW,2013-09-02 01:47:00,
2013-09-01 21:52:00,74.0,14.0,29.17,North,0,0.0,0.0,1,0.00,,,0.00,WUHU216HW,2013-09-02 01:52:00,
2013-09-01 21:57:00,74.3,14.3,29.17,North,0,0.0,0.0,1,0.00,,,0.00,WUHU216HW,2013-09-02 01:57:00,
2013-09-01 22:02:00,74.5,14.4,29.18,North,0,0.0,0.0,1,0.00,,,0.00,WUHU216HW,2013-09-02 02:02:00,
2013-09-01 22:07:00,74.5,14.4,29.17,North,0,0.0,0.0,1,0.00,,,0.00,WUHU216HW,2013-09-02 02:07:00,
2013-09-01 22:13:00,74.3,14.3,29.17,North,0,0.0,0.0,1,0.00,,,0.00,WUHU216HW,2013-09-02 02:13:00,
2013-09-01 22:18:00,74.2,14.2,29.17,North,0,0.0,0.0,1,0.00,,,0.00,WUHU216HW,2013-09-02 02:18:00,
2013-09-01 22:23:00,73.8,14.0,29.17,North,0,0.0,0.0,1,0.00,,,0.00,WUHU216HW,2013-09-02 02:23:00,
2013-09-01 22:28:00,73.8,14.0,29.17,North,0,0.0,0.0,1,0.00,,,0.00,WUHU216HW,2013-09-02 02:28:00,
2013-09-01 22:33:00,73.4,13.7,29.17,North,0,0.0,0.0,1,0.00,,,0.00,WUHU216HW,2013-09-02 02:33:00,
2013-09-01 22:38:00,73.3,13.5,29.17,North,0,0.0,0.0,1,0.00,,,0.00,WUHU216HW,2013-09-02 02:38:00,
2013-09-01 22:43:00,73.1,13.4,29.17,North,0,0.0,0.0,1,0.00,,,0.00,WUHU216HW,2013-09-02 02:43:00,
2013-09-01 22:48:00,72.9,13.2,29.17,North,0,0.0,0.0,1,0.00,,,0.00,WUHU216HW,2013-09-02 02:48:00,
2013-09-01 22:53:00,72.7,13.2,29.17,North,0,0.0,0.0,1,0.00,,,0.00,WUHU216HW,2013-09-02 02:53:00,
2013-09-01 22:59:00,72.4,12.8,29.17,North,0,0.0,0.0,1,0.00,,,0.00,WUHU216HW,2013-09-02 02:59:00,
2013-09-01 23:04:00,72.4,12.8,29.17,North,0,0.0,0.0,1,0.00,,,0.00,WUHU216HW,2013-09-02 03:04:00,
2013-09-01 23:09:00,72.2,12.7,29.17,North,0,0.0,0.0,1,0.00,,,0.00,WUHU216HW,2013-09-02 03:09:00,
2013-09-01 23:14:00,72.2,12.7,29.17,North,0,0.0,0.0,1,0.00,,,0.00,WUHU216HW,2013-09-02 03:14:00,
2013-09-01 23:19:00,72.0,12.5,29.17,North,0,0.0,0.0,1,0.00,,,0.00,WUHU216HW,2013-09-02 03:19:00,
2013-09-01 23:24:00,72.0,12.5,29.18,North,0,0.0,0.0,1,0.00,,,0.00,WUHU216HW,2013-09-02 03:24:00,
2013-09-01 23:29:00,72.0,12.5,29.18,North,0,0.0,0.0,1,0.00,,,0.00,WUHU216HW,2013-09-02 03:29:00,
2013-09-01 23:34:00,71.6,12.2,29.18,North,0,0.0,0.0,1,0.00,,,0.00,WUHU216HW,2013-09-02 03:34:00,
2013-09-01 23:39:00,71.8,12.4,29.18,North,0,0.0,0.0,1,0.00,,,0.00,WUHU216HW,2013-09-02 03:39:00,
2013-09-01 23:45:00,71.8,12.4,29.18,North,0,0.0,0.0,1,0.00,,,0.00,WUHU216HW,2013-09-02 03:45:00,
2013-09-01 23:50:00,72.2,12.7,29.18,North,0,0.0,0.0,1,0.00,,,0.00,WUHU216HW,2013-09-02 03:50:00,
2013-09-01 23:55:00,72.0,12.5,29.18,North,0,0.0,0.0,1,0.00,,,0.00,WUHU216HW,2013-09-02 03:55:00,